Time;durP1;ratioP1;P1;durP2;ratioP2;P2;SDS_P1;SDS_P2;PMS_P1;PMS_P2;Temp;Humidity;BMP_temperature;BMP_pressure;BME280_temperature;BME280_humidity;BME280_pressure;Samples;Min_cycle;Max_cycle;Signal;HPM_P1;HPM_P2
2022/01/30 00:00:48;;;;;;;27.25;4.25;;;;;;;5.56;85.42;102357.75;5041542;28;20044;-65
2022/01/30 00:03:15;;;;;;;25.25;4.50;;;;;;;5.51;85.28;102356.88;5041743;28;20049;-65
2022/01/30 00:05:41;;;;;;;25.63;3.97;;;;;;;5.48;85.42;102357.75;5041710;28;20032;-65
2022/01/30 00:08:07;;;;;;;27.30;4.15;;;;;;;5.46;85.13;102354.25;5040420;28;20040;-65
2022/01/30 00:10:37;;;;;;;32.60;3.97;;;;;;;5.43;85.12;102354.22;5041745;28;20044;-65
2022/01/30 00:13:05;;;;;;;23.95;4.32;;;;;;;5.38;85.37;102353.34;5041959;28;20101;-65
2022/01/30 00:15:44;;;;;;;27.45;4.55;;;;;;;5.35;85.40;102342.84;5027860;28;20055;-64
2022/01/30 00:18:36;;;;;;;26.13;3.85;;;;;;;5.34;85.42;102354.25;5041202;28;20487;-64
2022/01/30 00:21:09;;;;;;;21.60;3.80;;;;;;;5.34;85.71;102365.59;5041458;28;20036;-65
2022/01/30 00:23:38;;;;;;;26.88;3.70;;;;;;;5.36;85.33;102389.25;5056337;28;20850;-65
2022/01/30 00:26:07;;;;;;;30.80;4.53;;;;;;;5.36;85.22;102389.25;5041974;28;20598;-65
2022/01/30 00:28:33;;;;;;;25.80;3.35;;;;;;;5.31;85.57;102391.88;5041501;28;20045;-65
2022/01/30 00:30:59;;;;;;;22.25;3.50;;;;;;;5.25;85.55;102386.63;5042394;28;20352;-65
2022/01/30 00:33:24;;;;;;;24.80;3.28;;;;;;;5.20;85.78;102394.50;5040678;28;20021;-64
2022/01/30 00:35:50;;;;;;;23.20;3.30;;;;;;;5.15;86.25;102391.84;5040611;28;20032;-64
2022/01/30 00:38:18;;;;;;;16.80;3.55;;;;;;;5.09;86.49;102390.94;5041400;28;20040;-64
2022/01/30 00:40:46;;;;;;;21.20;4.20;;;;;;;5.03;86.18;102379.56;5040930;28;20041;-64
2022/01/30 00:43:12;;;;;;;25.63;4.10;;;;;;;4.96;86.32;102380.41;5048590;28;20033;-64
2022/01/30 00:45:38;;;;;;;18.27;3.15;;;;;;;4.91;86.14;102391.78;5041661;28;20028;-65
2022/01/30 00:48:04;;;;;;;17.77;2.78;;;;;;;4.86;86.18;102376.03;5040822;28;20036;-65
2022/01/30 00:50:30;;;;;;;16.65;2.83;;;;;;;4.82;86.56;102384.75;5040282;28;20372;-64
2022/01/30 00:52:55;;;;;;;11.18;2.47;;;;;;;4.78;86.59;102388.25;5041500;28;20694;-64
2022/01/30 00:55:26;;;;;;;19.00;2.80;;;;;;;4.73;86.45;102388.22;5041147;28;20105;-64
2022/01/30 00:57:54;;;;;;;23.80;3.35;;;;;;;4.66;87.08;102381.19;5041627;28;20029;-64
2022/01/30 01:00:20;;;;;;;21.13;3.10;;;;;;;4.61;86.73;102392.56;5041088;28;20128;-64
2022/01/30 01:02:46;;;;;;;18.35;3.42;;;;;;;4.56;87.05;102393.38;5041165;28;20510;-65
2022/01/30 01:05:13;;;;;;;21.92;3.17;;;;;;;4.52;86.80;102383.78;5039432;28;20248;-64
2022/01/30 01:07:43;;;;;;;20.27;3.78;;;;;;;4.48;87.25;102385.50;5041233;28;20033;-64
2022/01/30 01:10:23;;;;;;;26.35;3.75;;;;;;;4.45;87.04;102382.84;5040776;28;21562;-64
2022/01/30 01:13:04;;;;;;;25.35;3.95;;;;;;;4.43;87.72;102384.59;5041045;28;20052;-64
2022/01/30 01:23:45;;;;;;;25.98;4.35;;;;;;;4.40;87.61;102381.97;5040054;28;20029;-63
2022/01/30 01:26:11;;;;;;;31.92;4.25;;;;;;;4.38;88.01;102381.97;5039302;28;20067;-64
2022/01/30 01:28:37;;;;;;;29.25;3.30;;;;;;;4.39;87.78;102388.94;5040978;28;20036;-63
2022/01/30 01:31:03;;;;;;;25.08;3.55;;;;;;;4.41;88.00;102375.84;5040315;28;20199;-63
2022/01/30 01:33:42;;;;;;;30.75;4.32;;;;;;;4.44;87.87;102392.47;5039916;28;20067;-63
2022/01/30 01:36:07;;;;;;;29.92;4.47;;;;;;;4.47;87.78;102387.25;5040806;28;20558;-63
2022/01/30 01:38:33;;;;;;;23.20;3.53;;;;;;;4.53;87.11;102390.75;5040070;28;20043;-64
2022/01/30 01:40:58;;;;;;;34.20;4.80;;;;;;;4.57;87.38;102380.28;5040645;28;20157;-64
2022/01/30 01:43:25;;;;;;;24.45;4.03;;;;;;;4.61;87.66;102379.44;5040772;28;20041;-64
2022/01/30 01:45:53;;;;;;;29.55;4.88;;;;;;;4.65;87.29;102374.19;5040550;28;20157;-64
2022/01/30 01:48:19;;;;;;;27.83;4.07;;;;;;;4.69;87.28;102373.34;5039437;28;20059;-64
2022/01/30 01:50:51;;;;;;;26.50;4.65;;;;;;;4.72;87.27;102382.09;5039448;28;20045;-64
2022/01/30 01:53:17;;;;;;;31.95;4.72;;;;;;;4.78;87.28;102385.63;5040105;28;20032;-64
2022/01/30 01:55:44;;;;;;;29.75;5.03;;;;;;;4.80;87.46;102384.75;5039792;28;20071;-64
2022/01/30 01:58:09;;;;;;;39.30;5.03;;;;;;;4.83;87.39;102382.13;5039817;28;20048;-65
2022/01/30 02:00:36;;;;;;;34.08;4.45;;;;;;;4.86;87.46;102399.66;5039603;28;20512;-64
2022/01/30 02:03:02;;;;;;;40.35;5.00;;;;;;;4.86;87.59;102389.16;5039407;28;20040;-65
2022/01/30 02:05:31;;;;;;;32.92;4.63;;;;;;;4.87;87.75;102391.78;5039040;28;20637;-65
2022/01/30 02:08:27;;;;;;;30.83;4.78;;;;;;;4.89;87.85;102404.91;5039870;28;20028;-65
2022/01/30 02:24:50;;;;;;;26.38;3.63;;;;;;;4.75;87.29;102405.72;5039313;28;20358;-64
2022/01/30 02:27:19;;;;;;;24.77;4.15;;;;;;;4.73;87.22;102425.84;5039349;28;20047;-64
2022/01/30 02:29:45;;;;;;;30.70;4.18;;;;;;;4.72;87.63;102424.09;5039793;28;20036;-64
2022/01/30 02:32:11;;;;;;;27.05;4.40;;;;;;;4.73;87.55;102420.59;5039314;28;20067;-64
2022/01/30 02:34:37;;;;;;;20.25;3.60;;;;;;;4.74;87.42;102432.84;5037954;28;20151;-63
2022/01/30 02:37:03;;;;;;;30.30;4.57;;;;;;;4.78;87.71;102438.97;5039793;28;20115;-63
2022/01/30 02:39:28;;;;;;;37.70;4.78;;;;;;;4.80;87.73;102426.72;5039148;28;21801;-64
2022/01/30 02:41:54;;;;;;;28.08;4.28;;;;;;;4.82;87.99;102429.38;5039258;28;20047;-63
2022/01/30 02:44:37;;;;;;;34.63;5.78;;;;;;;4.82;88.28;102425.00;5039487;28;20037;-65
2022/01/30 02:47:08;;;;;;;33.25;4.40;;;;;;;4.82;88.18;102440.75;5039728;28;20039;-65
2022/01/30 02:49:57;;;;;;;31.30;5.32;;;;;;;4.83;88.14;102436.38;5038358;28;20036;-65
2022/01/30 02:52:22;;;;;;;29.45;4.90;;;;;;;4.82;87.89;102443.38;5039313;28;20438;-64
2022/01/30 02:54:48;;;;;;;31.08;4.78;;;;;;;4.84;87.92;102449.50;5037632;28;20086;-65
2022/01/30 02:57:13;;;;;;;34.85;5.55;;;;;;;4.84;88.56;102448.59;5039291;28;20041;-65
2022/01/30 02:59:39;;;;;;;29.40;5.18;;;;;;;4.85;88.41;102455.63;5038681;28;20151;-64
2022/01/30 03:02:05;;;;;;;35.78;5.28;;;;;;;4.84;88.14;102456.47;5035315;28;20123;-63
2022/01/30 03:04:30;;;;;;;39.97;5.93;;;;;;;4.81;88.43;102448.63;5037696;28;20374;-63
2022/01/30 03:06:56;;;;;;;38.40;6.00;;;;;;;4.80;88.71;102457.34;5038468;28;20039;-65
2022/01/30 03:09:21;;;;;;;41.70;5.38;;;;;;;4.77;88.51;102450.34;5039600;28;20243;-65
2022/01/30 03:11:47;;;;;;;34.75;5.55;;;;;;;4.76;88.79;102462.56;5038843;28;20111;-64
2022/01/30 03:14:12;;;;;;;45.20;5.60;;;;;;;4.72;88.88;102458.19;5039103;28;20735;-64
2022/01/30 03:16:38;;;;;;;31.05;4.93;;;;;;;4.72;89.10;102450.31;5038413;28;20490;-64
2022/01/30 03:19:03;;;;;;;39.72;6.25;;;;;;;4.71;88.45;102460.81;5037494;28;20095;-64
2022/01/30 03:21:29;;;;;;;37.15;6.50;;;;;;;4.68;88.64;102448.53;5041203;28;20179;-64
2022/01/30 03:23:54;;;;;;;39.70;5.75;;;;;;;4.68;88.87;102458.19;5040484;28;20123;-64
2022/01/30 03:26:20;;;;;;;40.35;6.07;;;;;;;4.69;89.35;102473.91;5042649;28;20040;-64
2022/01/30 03:28:48;;;;;;;33.33;5.88;;;;;;;4.72;89.17;102454.69;5043323;28;21654;-64
2022/01/30 03:31:14;;;;;;;36.75;6.57;;;;;;;4.74;88.82;102464.31;5042583;28;20387;-64
2022/01/30 03:33:40;;;;;;;41.10;6.13;;;;;;;4.76;89.26;102473.06;5041965;28;20037;-63
2022/01/30 03:36:05;;;;;;;35.35;5.15;;;;;;;4.78;89.50;102469.59;5042559;28;20478;-64
2022/01/30 03:38:32;;;;;;;30.73;4.95;;;;;;;4.78;89.32;102480.09;5040531;28;20048;-64
2022/01/30 03:40:57;;;;;;;32.35;4.93;;;;;;;4.75;89.16;102450.31;5041667;28;20040;-64
2022/01/30 03:43:23;;;;;;;31.50;5.03;;;;;;;4.71;89.39;102459.06;5042012;28;20060;-64
2022/01/30 03:45:49;;;;;;;33.05;4.18;;;;;;;4.66;89.57;102452.91;5042702;28;20471;-64
2022/01/30 03:48:15;;;;;;;29.42;5.07;;;;;;;4.61;89.84;102466.03;5041468;28;20041;-63
2022/01/30 03:50:44;;;;;;;25.77;4.53;;;;;;;4.57;89.69;102466.84;5041387;28;20039;-64
2022/01/30 03:53:10;;;;;;;26.65;4.60;;;;;;;4.53;90.23;102459.81;5042913;28;20189;-64
2022/01/30 03:55:35;;;;;;;41.03;5.60;;;;;;;4.51;90.44;102468.59;5041975;28;20738;-63
2022/01/30 03:58:01;;;;;;;44.83;6.47;;;;;;;4.48;90.13;102472.91;5041268;28;20090;-64
2022/01/30 04:00:27;;;;;;;42.08;5.78;;;;;;;4.48;89.67;102462.44;5040609;28;20152;-64
2022/01/30 04:02:53;;;;;;;40.80;5.60;;;;;;;4.48;90.10;102462.44;5041995;28;20043;-65
2022/01/30 04:05:19;;;;;;;39.63;6.07;;;;;;;4.50;89.42;102470.31;5040903;28;20032;-65
2022/01/30 04:07:46;;;;;;;43.85;6.13;;;;;;;4.52;89.15;102472.97;5042108;28;20116;-65
2022/01/30 04:10:12;;;;;;;41.42;5.50;;;;;;;4.55;88.76;102478.22;5042016;28;20041;-64
2022/01/30 04:12:38;;;;;;;40.38;5.68;;;;;;;4.55;88.38;102483.44;5041668;28;20502;-64
2022/01/30 04:15:04;;;;;;;32.22;5.18;;;;;;;4.56;87.99;102493.06;5041911;28;20020;-64
2022/01/30 04:17:30;;;;;;;38.55;6.40;;;;;;;4.56;87.75;102498.31;5041932;28;20033;-64
2022/01/30 04:19:56;;;;;;;46.83;5.85;;;;;;;4.55;87.31;102500.09;5041199;28;20068;-65
2022/01/30 04:22:21;;;;;;;33.42;5.30;;;;;;;4.55;86.94;102488.69;5041592;28;20082;-65
2022/01/30 04:24:47;;;;;;;36.60;6.38;;;;;;;4.55;86.58;102499.19;5041527;28;20101;-65
2022/01/30 04:27:12;;;;;;;41.00;4.93;;;;;;;4.56;86.80;102506.19;5041993;28;20123;-65
2022/01/30 04:29:38;;;;;;;33.53;4.95;;;;;;;4.53;86.35;102530.66;5041779;28;20024;-65
2022/01/30 04:32:04;;;;;;;35.25;5.60;;;;;;;4.54;86.09;102521.94;5041378;28;20375;-64
2022/01/30 04:34:30;;;;;;;37.65;5.65;;;;;;;4.55;85.39;102531.56;5040803;28;20304;-64
2022/01/30 04:37:12;;;;;;;31.20;5.40;;;;;;;4.53;84.87;102529.78;5042243;28;20170;-64
2022/01/30 04:40:08;;;;;;;38.10;5.30;;;;;;;4.51;84.91;102556.00;5040649;28;20141;-64
2022/01/30 05:06:01;;;;;;;32.17;5.72;;;;;;;4.50;82.83;102554.25;5040059;28;20043;-64
2022/01/30 05:08:27;;;;;;;44.50;5.95;;;;;;;4.49;83.16;102563.84;5040165;28;20064;-64
2022/01/30 05:10:54;;;;;;;32.50;5.57;;;;;;;4.49;82.96;102547.25;5040745;28;20590;-65
2022/01/30 05:13:23;;;;;;;46.20;5.50;;;;;;;4.49;82.29;102548.13;5040777;28;20095;-64
2022/01/30 05:15:49;;;;;;;41.08;5.85;;;;;;;4.49;82.84;102558.59;5040115;28;20570;-64
2022/01/30 05:18:21;;;;;;;39.22;5.63;;;;;;;4.51;82.31;102557.78;5044820;28;20032;-65
2022/01/30 05:20:47;;;;;;;45.38;6.85;;;;;;;4.53;82.48;102561.28;5038272;28;20024;-64
2022/01/30 05:23:13;;;;;;;37.70;5.75;;;;;;;4.54;81.94;102566.53;5040224;28;20687;-65
2022/01/30 05:25:39;;;;;;;40.92;5.85;;;;;;;4.53;82.01;102579.63;5040777;28;20037;-65
2022/01/30 05:28:06;;;;;;;39.13;6.28;;;;;;;4.52;81.87;102573.50;5040149;28;20132;-64
2022/01/30 05:30:34;;;;;;;43.00;6.20;;;;;;;4.50;81.73;102575.25;5040326;28;20045;-65
2022/01/30 05:33:00;;;;;;;33.08;5.97;;;;;;;4.48;81.94;102585.72;5038617;28;20131;-65
2022/01/30 05:35:26;;;;;;;37.75;6.68;;;;;;;4.47;81.30;102585.72;5039087;28;20595;-65
2022/01/30 05:37:53;;;;;;;39.70;6.05;;;;;;;4.45;81.45;102588.31;5040891;28;20047;-64
2022/01/30 05:40:19;;;;;;;44.85;6.30;;;;;;;4.43;82.01;102600.56;5038862;28;20052;-64
2022/01/30 05:42:45;;;;;;;36.25;5.97;;;;;;;4.43;81.79;102590.06;5038116;28;20040;-65
2022/01/30 05:45:33;;;;;;;35.20;5.22;;;;;;;4.42;81.57;102597.91;5040131;28;20058;-64
2022/01/30 05:48:01;;;;;;;36.83;5.15;;;;;;;4.42;81.11;102590.91;5039518;28;20052;-65
2022/01/30 05:50:27;;;;;;;41.17;5.72;;;;;;;4.42;81.26;102596.16;5039113;28;20514;-65
2022/01/30 05:52:53;;;;;;;53.60;6.85;;;;;;;4.44;81.20;102597.06;5039735;28;20029;-64
2022/01/30 05:55:18;;;;;;;40.80;6.05;;;;;;;4.45;81.15;102596.19;5038636;28;20094;-64
2022/01/30 05:57:44;;;;;;;48.67;6.30;;;;;;;4.47;81.21;102602.31;5039981;28;20033;-64
2022/01/30 06:00:13;;;;;;;40.72;6.55;;;;;;;4.49;81.78;102599.72;5039598;28;20465;-64
2022/01/30 06:02:43;;;;;;;47.10;6.68;;;;;;;4.51;81.02;102584.84;5039346;28;20498;-64
2022/01/30 06:05:09;;;;;;;37.67;6.22;;;;;;;4.53;81.23;102595.38;5038827;28;20115;-65
2022/01/30 06:07:38;;;;;;;40.70;7.10;;;;;;;4.54;81.73;102591.88;5039783;28;20028;-65
2022/01/30 06:10:04;;;;;;;40.00;6.13;;;;;;;4.55;81.11;102599.78;5039742;28;20021;-65
2022/01/30 06:12:29;;;;;;;37.25;5.90;;;;;;;4.55;80.79;102596.25;5037876;28;20021;-64
2022/01/30 06:14:55;;;;;;;39.88;6.63;;;;;;;4.54;80.83;102597.13;5039719;28;20552;-64
2022/01/30 06:17:21;;;;;;;39.45;6.88;;;;;;;4.55;81.07;102609.38;5040088;28;20028;-64
2022/01/30 06:19:46;;;;;;;45.65;7.10;;;;;;;4.54;80.45;102597.13;5038368;28;20040;-64
2022/01/30 06:22:12;;;;;;;45.67;6.68;;;;;;;4.56;80.53;102605.88;5038749;28;20033;-64
2022/01/30 06:24:37;;;;;;;41.08;6.78;;;;;;;4.57;81.31;102618.16;5039147;28;20047;-64
2022/01/30 06:27:03;;;;;;;37.45;6.30;;;;;;;4.58;80.63;102602.41;5039782;28;20029;-64
2022/01/30 06:29:29;;;;;;;45.47;6.30;;;;;;;4.57;80.80;102603.28;5040242;28;20617;-64
2022/01/30 06:31:54;;;;;;;39.85;6.10;;;;;;;4.57;81.02;102600.66;5039056;28;20498;-65
2022/01/30 06:34:20;;;;;;;35.30;5.25;;;;;;;4.57;80.52;102603.28;5038632;28;20028;-63
2022/01/30 06:36:45;;;;;;;48.90;6.95;;;;;;;4.61;80.51;102612.03;5038133;28;20033;-64
2022/01/30 06:39:11;;;;;;;40.22;6.30;;;;;;;4.64;80.04;102619.97;5038869;28;20064;-64
2022/01/30 06:41:36;;;;;;;37.97;6.85;;;;;;;4.66;80.30;102619.94;5039502;28;20183;-64
2022/01/30 06:44:02;;;;;;;39.50;5.85;;;;;;;4.66;80.23;102627.81;5038874;28;20579;-65
2022/01/30 06:46:27;;;;;;;43.08;6.13;;;;;;;4.67;80.73;102633.09;5039564;28;20501;-64
2022/01/30 06:48:53;;;;;;;46.40;6.15;;;;;;;4.67;80.08;102635.72;5037785;28;20141;-64
2022/01/30 06:51:18;;;;;;;40.38;5.93;;;;;;;4.70;80.13;102634.88;5039124;28;20032;-64
2022/01/30 06:53:44;;;;;;;40.08;6.68;;;;;;;4.70;80.68;102651.50;5038305;28;20021;-64
2022/01/30 06:56:09;;;;;;;49.80;7.22;;;;;;;4.71;80.21;102663.75;5040871;28;20029;-64
2022/01/30 06:58:35;;;;;;;36.50;6.35;;;;;;;4.70;80.23;102671.59;5042425;28;20033;-65
2022/01/30 07:01:00;;;;;;;34.13;5.63;;;;;;;4.70;80.13;102676.84;5041343;28;20025;-65
2022/01/30 07:03:26;;;;;;;38.28;6.97;;;;;;;4.70;80.37;102680.38;5041151;28;20025;-64
2022/01/30 07:05:51;;;;;;;33.85;5.68;;;;;;;4.70;79.90;102683.00;5041385;28;20074;-65
2022/01/30 07:08:17;;;;;;;40.88;6.72;;;;;;;4.70;80.38;102696.09;5042788;28;20121;-64
2022/01/30 07:10:43;;;;;;;44.10;6.18;;;;;;;4.70;80.25;102701.34;5041057;28;20028;-64
2022/01/30 07:13:11;;;;;;;44.05;6.72;;;;;;;4.69;80.21;102702.19;5042107;28;20042;-65
2022/01/30 07:15:36;;;;;;;49.25;6.75;;;;;;;4.70;80.27;102711.84;5042568;28;20037;-64
2022/01/30 07:18:02;;;;;;;37.92;6.53;;;;;;;4.70;80.02;102727.59;5042835;28;20040;-64
2022/01/30 07:20:28;;;;;;;52.70;8.02;;;;;;;4.71;80.17;102728.47;5041619;28;20044;-64
2022/01/30 07:22:54;;;;;;;43.92;6.85;;;;;;;4.71;80.33;102742.47;5042929;28;20120;-64
2022/01/30 07:25:19;;;;;;;45.63;7.05;;;;;;;4.71;80.69;102733.72;5042525;28;20395;-64
2022/01/30 07:27:46;;;;;;;51.75;6.57;;;;;;;4.71;80.06;102737.22;5043255;28;20060;-64
2022/01/30 07:30:12;;;;;;;45.17;7.10;;;;;;;4.71;79.49;102734.59;5043089;28;20029;-63
2022/01/30 07:32:37;;;;;;;47.95;7.25;;;;;;;4.70;79.55;102738.09;5041064;28;20032;-64
2022/01/30 07:35:03;;;;;;;44.92;6.13;;;;;;;4.69;79.49;102731.06;5041789;28;20025;-64
2022/01/30 07:37:29;;;;;;;40.97;6.88;;;;;;;4.68;79.59;102731.06;5043139;28;20032;-64
2022/01/30 07:39:59;;;;;;;38.25;6.97;;;;;;;4.66;79.51;102725.78;5041988;28;20052;-64
2022/01/30 07:42:25;;;;;;;41.75;6.68;;;;;;;4.65;78.72;102724.03;5041754;28;20036;-64
2022/01/30 07:44:52;;;;;;;34.88;7.05;;;;;;;4.64;79.12;102724.91;5040593;28;20024;-64
2022/01/30 07:47:19;;;;;;;38.47;6.43;;;;;;;4.64;79.11;102727.53;5041392;28;20343;-64
2022/01/30 07:49:51;;;;;;;36.17;6.97;;;;;;;4.63;78.95;102725.75;5040812;28;20383;-64
2022/01/30 07:52:20;;;;;;;48.72;6.47;;;;;;;4.65;78.53;102721.41;5041680;28;20089;-64
2022/01/30 07:54:46;;;;;;;42.58;7.85;;;;;;;4.64;78.22;102727.53;5041935;28;20432;-62
2022/01/30 07:57:11;;;;;;;49.67;7.05;;;;;;;4.65;78.31;102726.66;5042114;28;20281;-63
2022/01/30 07:59:37;;;;;;;42.53;6.97;;;;;;;4.65;78.47;102726.66;5042090;28;20045;-64
2022/01/30 08:02:03;;;;;;;41.53;6.70;;;;;;;4.64;78.66;102730.16;5042241;28;20032;-64
2022/01/30 08:04:28;;;;;;;45.67;6.55;;;;;;;4.65;78.36;102738.91;5041205;28;20488;-64
2022/01/30 08:06:55;;;;;;;41.45;7.32;;;;;;;4.66;78.28;102743.28;5041707;28;20029;-64
2022/01/30 08:09:20;;;;;;;42.47;6.88;;;;;;;4.66;78.16;102754.66;5040887;28;20420;-64
2022/01/30 08:11:46;;;;;;;41.40;6.18;;;;;;;4.67;78.14;102766.03;5041799;28;20161;-64
2022/01/30 08:14:12;;;;;;;46.28;7.03;;;;;;;4.65;78.42;102767.75;5042467;28;20048;-64
2022/01/30 08:16:38;;;;;;;39.97;6.40;;;;;;;4.63;77.92;102778.22;5042261;28;20514;-64
2022/01/30 08:19:04;;;;;;;43.90;7.40;;;;;;;4.61;78.17;102777.34;5040720;28;20103;-64
2022/01/30 08:21:29;;;;;;;30.48;6.32;;;;;;;4.58;77.73;102782.56;5040323;28;20037;-64
2022/01/30 08:23:55;;;;;;;25.83;4.95;;;;;;;4.53;77.57;102789.50;5041994;28;20109;-64
2022/01/30 08:26:21;;;;;;;32.95;5.82;;;;;;;4.51;77.86;102793.84;5042711;28;20084;-64
2022/01/30 08:28:46;;;;;;;35.83;5.72;;;;;;;4.48;76.68;102792.94;5040935;28;20040;-64
2022/01/30 08:31:12;;;;;;;31.27;4.90;;;;;;;4.47;77.10;102798.19;5042044;28;20055;-64
2022/01/30 08:33:37;;;;;;;28.08;5.40;;;;;;;4.45;76.97;102806.03;5040823;28;20051;-64
2022/01/30 08:36:03;;;;;;;37.30;5.85;;;;;;;4.44;76.81;102796.41;5039771;28;20109;-64
2022/01/30 08:38:29;;;;;;;36.35;5.65;;;;;;;4.44;77.01;102793.78;5041336;28;20037;-64
2022/01/30 08:40:54;;;;;;;40.30;6.72;;;;;;;4.45;77.01;102802.53;5041026;28;20148;-64
2022/01/30 08:43:21;;;;;;;35.42;5.95;;;;;;;4.45;76.13;102800.78;5041116;28;20045;-64
2022/01/30 08:45:49;;;;;;;36.40;5.13;;;;;;;4.47;76.25;102800.81;5039994;28;20029;-64
2022/01/30 08:48:15;;;;;;;25.33;5.05;;;;;;;4.48;76.75;102789.47;5040644;28;20652;-64
2022/01/30 08:50:40;;;;;;;44.15;8.25;;;;;;;4.48;77.10;102795.56;5040489;28;20448;-63
2022/01/30 08:53:06;;;;;;;38.75;6.15;;;;;;;4.48;76.89;102787.69;5041410;28;20059;-64
2022/01/30 08:55:33;;;;;;;41.10;5.70;;;;;;;4.48;77.06;102789.47;5041517;28;20032;-64
2022/01/30 08:58:07;;;;;;;35.05;6.70;;;;;;;4.51;76.62;102788.63;5041163;28;20031;-64
2022/01/30 09:00:33;;;;;;;40.65;7.45;;;;;;;4.53;77.00;102768.50;5042053;28;20063;-63
2022/01/30 09:02:59;;;;;;;36.67;6.32;;;;;;;4.55;76.72;102774.66;5041403;28;20039;-64
2022/01/30 09:05:25;;;;;;;53.60;7.25;;;;;;;4.57;76.75;102779.06;5039587;28;20036;-63
2022/01/30 09:07:51;;;;;;;41.40;7.10;;;;;;;4.58;76.58;102786.06;5040822;28;20033;-63
2022/01/30 09:10:16;;;;;;;35.35;6.40;;;;;;;4.62;76.89;102792.22;5040260;28;20036;-64
2022/01/30 09:12:42;;;;;;;42.08;6.50;;;;;;;4.63;76.82;102786.09;5041482;28;20054;-64
2022/01/30 09:15:10;;;;;;;42.55;6.63;;;;;;;4.67;76.62;102793.16;5039539;28;20472;-64
2022/01/30 09:17:36;;;;;;;38.05;6.85;;;;;;;4.70;77.18;102787.94;5040957;28;20494;-64
2022/01/30 09:20:03;;;;;;;49.83;7.78;;;;;;;4.74;77.36;102802.84;5038792;28;20075;-64
2022/01/30 09:22:29;;;;;;;38.42;7.00;;;;;;;4.78;77.37;102805.53;5040295;28;20025;-64
2022/01/30 09:24:54;;;;;;;41.08;7.72;;;;;;;4.83;76.97;102812.56;5040094;28;21240;-64
2022/01/30 09:27:20;;;;;;;47.83;6.85;;;;;;;4.90;77.18;102808.25;5040547;28;20029;-64
2022/01/30 09:29:45;;;;;;;51.65;6.28;;;;;;;4.99;77.23;102813.59;5040873;28;20045;-64
2022/01/30 09:32:11;;;;;;;50.35;8.43;;;;;;;5.09;78.16;102816.31;5039983;28;20043;-64
2022/01/30 09:34:37;;;;;;;55.60;9.18;;;;;;;5.17;77.79;102812.00;5037580;28;20041;-64
2022/01/30 09:37:07;;;;;;;51.00;7.72;;;;;;;5.23;78.08;102821.69;5040256;28;20061;-64
2022/01/30 09:39:33;;;;;;;45.22;7.80;;;;;;;5.29;78.46;102840.13;5040130;28;20188;-64
2022/01/30 09:41:58;;;;;;;48.28;6.75;;;;;;;5.30;77.78;102837.50;5040617;28;20361;-64
2022/01/30 09:44:24;;;;;;;39.78;6.47;;;;;;;5.29;77.83;102838.38;5039767;28;20543;-63
2022/01/30 09:46:50;;;;;;;46.15;7.20;;;;;;;5.29;77.53;102829.63;5038648;28;20098;-63
2022/01/30 09:49:20;;;;;;;45.90;7.63;;;;;;;5.29;77.25;102842.75;5037515;28;20060;-63
2022/01/30 09:51:46;;;;;;;44.83;7.30;;;;;;;5.25;77.89;102833.97;5040315;28;20671;-63
2022/01/30 09:54:12;;;;;;;36.97;7.20;;;;;;;5.24;77.58;102850.56;5039506;28;20029;-63
2022/01/30 09:56:39;;;;;;;43.70;7.55;;;;;;;5.24;77.59;102840.06;5040483;28;20052;-62
2022/01/30 09:59:05;;;;;;;48.25;8.05;;;;;;;5.24;77.24;102845.31;5040798;28;20506;-63
2022/01/30 10:01:35;;;;;;;46.13;6.88;;;;;;;5.24;76.87;102847.09;5039871;28;20036;-62
2022/01/30 10:04:02;;;;;;;40.90;6.28;;;;;;;5.25;76.48;102841.84;5044172;28;20364;-63
2022/01/30 10:06:35;;;;;;;38.63;6.05;;;;;;;5.26;75.95;102845.34;5039894;28;21796;-63
2022/01/30 10:09:28;;;;;;;32.13;5.68;;;;;;;5.28;76.06;102841.88;5037707;28;20234;-62
2022/01/30 10:12:12;;;;;;;42.25;6.28;;;;;;;5.32;75.98;102849.78;5040088;28;20058;-64
2022/01/30 10:15:03;;;;;;;36.97;7.15;;;;;;;5.36;75.25;102857.72;5039361;28;20041;-63
2022/01/30 10:17:34;;;;;;;35.70;7.13;;;;;;;5.38;75.59;102857.69;5038656;28;20033;-63
2022/01/30 10:20:08;;;;;;;50.00;7.80;;;;;;;5.40;75.36;102853.34;5037613;28;20036;-63
2022/01/30 10:22:57;;;;;;;41.72;6.80;;;;;;;5.41;75.44;102855.13;5039591;28;20115;-64
2022/01/30 10:25:28;;;;;;;34.67;6.88;;;;;;;5.43;75.42;102861.25;5039640;28;20037;-63
2022/01/30 10:28:08;;;;;;;37.92;7.15;;;;;;;5.41;74.85;102866.47;5040535;28;20127;-63
2022/01/30 10:30:41;;;;;;;36.45;6.05;;;;;;;5.44;74.98;102863.91;5037168;28;20944;-62
2022/01/30 10:33:09;;;;;;;32.85;5.57;;;;;;;5.48;75.14;102872.69;5038783;28;20628;-63
2022/01/30 10:35:59;;;;;;;37.25;6.22;;;;;;;5.53;74.54;102864.84;5038316;28;20032;-62
2022/01/30 10:38:25;;;;;;;32.60;5.50;;;;;;;5.56;74.74;102871.00;5043070;28;20047;-63
2022/01/30 10:41:10;;;;;;;43.55;5.85;;;;;;;5.58;74.98;102882.38;5039562;28;20490;-63
2022/01/30 10:43:56;;;;;;;38.05;6.70;;;;;;;5.60;74.86;102876.28;5039147;28;20116;-63
2022/01/30 10:46:23;;;;;;;32.03;5.95;;;;;;;5.58;74.82;102873.66;5038535;28;20384;-62
2022/01/30 10:48:51;;;;;;;37.80;7.15;;;;;;;5.57;74.69;102880.63;5037338;28;20060;-63
2022/01/30 10:51:17;;;;;;;29.48;5.72;;;;;;;5.57;74.78;102880.63;5039759;28;20090;-62
2022/01/30 10:53:43;;;;;;;38.35;5.50;;;;;;;5.57;74.12;102878.00;5038740;28;20051;-63
2022/01/30 10:56:26;;;;;;;34.00;6.07;;;;;;;5.56;73.87;102886.75;5037140;28;20048;-63
2022/01/30 10:59:11;;;;;;;37.47;5.87;;;;;;;5.55;73.88;102885.00;5039418;28;20078;-63
2022/01/30 11:01:45;;;;;;;41.97;5.85;;;;;;;5.54;73.91;102882.34;5037627;28;20135;-63
2022/01/30 11:04:36;;;;;;;38.53;4.75;;;;;;;5.54;73.04;102888.50;5037403;28;20025;-63
2022/01/30 11:07:03;;;;;;;38.78;6.22;;;;;;;5.55;73.66;102884.13;5039287;28;20033;-62
2022/01/30 11:09:38;;;;;;;36.97;5.32;;;;;;;5.55;73.53;102882.38;5039944;28;20111;-61
2022/01/30 11:12:08;;;;;;;29.77;7.43;;;;;;;5.54;73.62;102878.00;5039623;28;20043;-63
2022/01/30 11:15:05;;;;;;;41.47;6.53;;;;;;;5.54;73.44;102877.09;5038924;28;20033;-63
2022/01/30 11:17:24;;;;;;;30.80;5.38;;;;;;;5.55;73.13;102868.34;5038925;28;20127;-64
2022/01/30 11:19:52;;;;;;;40.42;7.07;;;;;;;5.55;73.06;102871.88;5038473;28;20372;-62
2022/01/30 11:22:19;;;;;;;35.83;5.55;;;;;;;5.56;73.33;102873.63;5039354;28;20121;-63
2022/01/30 11:24:52;;;;;;;39.78;6.32;;;;;;;5.59;73.15;102878.03;5038801;28;20032;-63
2022/01/30 11:27:20;;;;;;;40.95;6.70;;;;;;;5.61;73.52;102878.03;5037417;28;20025;-62
2022/01/30 11:29:46;;;;;;;38.63;5.95;;;;;;;5.62;73.39;102880.66;5038600;28;20037;-63
2022/01/30 11:32:13;;;;;;;38.17;5.88;;;;;;;5.63;73.80;102876.31;5038794;28;20029;-63
2022/01/30 11:34:39;;;;;;;34.80;5.53;;;;;;;5.65;73.46;102874.56;5038314;28;20056;-64
2022/01/30 11:37:07;;;;;;;42.53;6.43;;;;;;;5.66;73.80;102881.59;5039198;28;20137;-63
2022/01/30 11:39:32;;;;;;;41.65;7.47;;;;;;;5.67;73.87;102885.97;5038575;28;20086;-63
2022/01/30 11:42:23;;;;;;;43.33;5.90;;;;;;;5.70;73.41;102893.88;5039244;28;20050;-63
2022/01/30 11:45:00;;;;;;;48.08;8.32;;;;;;;5.73;73.19;102893.91;5041762;28;20044;-63
2022/01/30 11:47:26;;;;;;;38.25;5.63;;;;;;;5.75;73.37;102901.78;5041674;28;20040;-63
2022/01/30 11:50:00;;;;;;;38.78;6.22;;;;;;;5.79;73.63;102907.13;5040884;28;20383;-63
2022/01/30 11:52:53;;;;;;;31.85;6.47;;;;;;;5.82;72.76;102893.97;5043278;28;20064;-63
2022/01/30 11:55:49;;;;;;;33.10;6.00;;;;;;;5.89;72.99;102896.66;5042155;28;20044;-63
2022/01/30 11:58:30;;;;;;;27.63;5.13;;;;;;;6.00;73.19;102896.72;5042362;28;20134;-63
2022/01/30 12:00:56;;;;;;;33.47;5.97;;;;;;;6.07;73.22;102909.06;5041508;28;20068;-63
2022/01/30 12:03:27;;;;;;;37.10;6.30;;;;;;;6.15;72.74;102902.09;5042156;28;20109;-63
2022/01/30 12:05:55;;;;;;;33.33;5.22;;;;;;;6.23;72.59;102910.06;5041423;28;20033;-63
2022/01/30 12:08:46;;;;;;;37.50;5.90;;;;;;;6.27;72.15;102901.31;5041877;28;20502;-63
2022/01/30 12:11:39;;;;;;;35.92;5.35;;;;;;;6.27;71.85;102898.69;5041810;28;20068;-63
2022/01/30 12:14:42;;;;;;;31.83;5.70;;;;;;;6.24;71.32;102910.06;5041826;28;20036;-63
2022/01/30 12:17:08;;;;;;;35.33;6.43;;;;;;;6.25;72.35;102913.56;5041509;28;20041;-62